Time;durP1;ratioP1;P1;durP2;ratioP2;P2;SDS_P1;SDS_P2;PMS_P1;PMS_P2;Temp;Humidity;BMP_temperature;BMP_pressure;BME280_temperature;BME280_humidity;BME280_pressure;Samples;Min_cycle;Max_cycle;Signal;HPM_P1;HPM_P2
2023/06/25 00:02:06;;;;;;;6.47;5.70;;;17.00;99.90;;;;;;4982332;28;20225;-79
2023/06/25 00:04:33;;;;;;;7.50;5.83;;;16.90;99.90;;;;;;4984790;28;20232;-79
2023/06/25 00:07:00;;;;;;;7.53;5.90;;;16.90;99.90;;;;;;4983380;28;20582;-78
2023/06/25 00:09:27;;;;;;;7.33;6.03;;;16.90;99.90;;;;;;4977762;28;20673;-79
2023/06/25 00:11:54;;;;;;;8.83;6.60;;;16.80;99.90;;;;;;4979880;28;20213;-78
2023/06/25 00:14:22;;;;;;;9.20;8.40;;;16.80;99.90;;;;;;4984850;28;20210;-79
2023/06/25 00:16:57;;;;;;;10.53;9.53;;;16.80;99.90;;;;;;4976682;28;20197;-78
2023/06/25 00:19:25;;;;;;;10.17;9.17;;;16.70;99.90;;;;;;4993858;28;20221;-78
2023/06/25 00:21:51;;;;;;;9.57;8.67;;;16.70;99.90;;;;;;4977372;28;20226;-78
2023/06/25 00:24:18;;;;;;;9.13;8.33;;;16.70;99.90;;;;;;4977217;28;20934;-78
2023/06/25 00:26:46;;;;;;;10.07;9.07;;;16.60;99.90;;;;;;4979255;28;20205;-79
2023/06/25 00:29:13;;;;;;;7.23;6.53;;;16.60;99.90;;;;;;4990045;28;20210;-78
2023/06/25 00:31:42;;;;;;;8.03;6.03;;;16.60;99.90;;;;;;5003471;28;20214;-78
2023/06/25 00:34:09;;;;;;;8.97;8.17;;;16.60;99.90;;;;;;4981072;28;20275;-79
2023/06/25 00:36:37;;;;;;;9.73;7.67;;;16.50;99.90;;;;;;4982916;28;20206;-79
2023/06/25 00:39:04;;;;;;;7.70;6.90;;;16.40;99.90;;;;;;4980119;28;20573;-78
2023/06/25 00:41:31;;;;;;;7.87;6.87;;;16.40;99.90;;;;;;4977746;28;20222;-78
2023/06/25 00:43:58;;;;;;;8.67;7.77;;;16.40;99.90;;;;;;4977875;28;20233;-79
2023/06/25 00:46:26;;;;;;;6.57;5.87;;;16.30;99.90;;;;;;4978316;28;20553;-78
2023/06/25 00:48:55;;;;;;;8.13;7.13;;;16.20;99.90;;;;;;4978040;28;20561;-78
2023/06/25 00:51:26;;;;;;;8.10;7.40;;;16.20;99.90;;;;;;4981105;28;20252;-79
2023/06/25 00:53:53;;;;;;;7.07;6.37;;;16.10;99.90;;;;;;5004837;28;20206;-79
2023/06/25 00:56:29;;;;;;;6.60;5.70;;;16.10;99.90;;;;;;5010445;28;20206;-78
2023/06/25 00:59:00;;;;;;;8.30;6.43;;;16.00;99.90;;;;;;4981350;28;20201;-79
2023/06/25 01:01:37;;;;;;;10.10;7.77;;;16.00;99.90;;;;;;4982380;28;20341;-78
2023/06/25 01:04:09;;;;;;;9.27;8.33;;;16.00;99.90;;;;;;4980267;28;20205;-78
2023/06/25 01:06:42;;;;;;;9.13;8.03;;;16.00;99.90;;;;;;4981164;28;20206;-78
2023/06/25 01:09:11;;;;;;;8.83;8.03;;;16.00;99.90;;;;;;4981662;28;20206;-79
2023/06/25 01:11:38;;;;;;;9.10;8.20;;;15.90;99.90;;;;;;4980583;28;20218;-78
2023/06/25 01:14:05;;;;;;;7.43;6.03;;;15.90;99.90;;;;;;4977189;28;20215;-78
2023/06/25 01:16:32;;;;;;;9.00;6.97;;;15.90;99.90;;;;;;4980568;28;20210;-79
2023/06/25 01:19:02;;;;;;;8.00;6.37;;;15.80;99.90;;;;;;4985927;28;20219;-79
2023/06/25 01:21:32;;;;;;;6.47;5.53;;;15.90;99.90;;;;;;5014542;28;20233;-79
2023/06/25 01:24:00;;;;;;;7.77;6.10;;;15.90;99.90;;;;;;4987324;28;20612;-80
2023/06/25 01:26:27;;;;;;;7.57;6.60;;;15.80;99.90;;;;;;4996393;28;20210;-79
2023/06/25 01:28:55;;;;;;;8.53;6.80;;;15.80;99.90;;;;;;4980666;28;20284;-79
2023/06/25 01:31:24;;;;;;;6.47;5.63;;;15.90;99.90;;;;;;4980826;28;20225;-79
2023/06/25 01:33:51;;;;;;;6.93;6.10;;;15.80;99.90;;;;;;4980592;28;20251;-78
2023/06/25 01:36:18;;;;;;;6.57;5.63;;;15.70;99.90;;;;;;4980332;28;20267;-78
2023/06/25 01:38:45;;;;;;;7.13;5.87;;;15.70;99.90;;;;;;4983113;28;20736;-78
2023/06/25 01:41:13;;;;;;;8.70;7.90;;;15.60;99.90;;;;;;4980679;28;20224;-79
2023/06/25 01:43:40;;;;;;;7.97;7.17;;;15.60;99.90;;;;;;4981090;28;20272;-78
2023/06/25 01:46:07;;;;;;;6.57;5.87;;;15.60;99.90;;;;;;4981059;28;20201;-78
2023/06/25 01:48:34;;;;;;;8.27;6.03;;;15.50;99.90;;;;;;4997242;28;20654;-78
2023/06/25 01:51:01;;;;;;;6.97;5.97;;;15.50;99.90;;;;;;4980784;28;20620;-78
2023/06/25 01:53:28;;;;;;;8.83;6.80;;;15.40;99.90;;;;;;4980760;28;20201;-79
2023/06/25 01:55:54;;;;;;;7.13;6.43;;;15.40;99.90;;;;;;4980185;28;20202;-79
2023/06/25 01:58:23;;;;;;;7.43;6.43;;;15.40;99.90;;;;;;4979869;28;20212;-79
2023/06/25 02:00:49;;;;;;;8.67;6.40;;;15.30;99.90;;;;;;4987682;28;20246;-79
2023/06/25 02:03:18;;;;;;;7.83;7.07;;;15.20;99.90;;;;;;4996613;28;20599;-78
2023/06/25 02:05:45;;;;;;;9.83;8.83;;;15.20;99.90;;;;;;4981287;28;20191;-78
2023/06/25 02:08:12;;;;;;;8.37;6.90;;;15.20;99.90;;;;;;5005089;28;20191;-78
2023/06/25 02:10:39;;;;;;;9.57;8.77;;;15.20;99.90;;;;;;4980980;28;20687;-78
2023/06/25 02:13:08;;;;;;;7.93;6.90;;;15.10;99.90;;;;;;4980282;28;20229;-78
2023/06/25 02:15:36;;;;;;;9.23;7.17;;;15.20;99.90;;;;;;4979645;28;20215;-79
2023/06/25 02:18:03;;;;;;;7.73;6.93;;;15.10;99.90;;;;;;4978879;28;20207;-78
2023/06/25 02:20:30;;;;;;;8.97;8.07;;;15.10;99.90;;;;;;4978786;28;20320;-77
2023/06/25 02:22:57;;;;;;;8.30;7.43;;;15.10;99.90;;;;;;4981467;28;20227;-79
2023/06/25 02:25:23;;;;;;;9.70;7.73;;;15.10;99.90;;;;;;5005422;28;20205;-79
2023/06/25 02:27:50;;;;;;;9.77;8.87;;;15.00;99.90;;;;;;4981622;28;20191;-78
2023/06/25 02:30:17;;;;;;;6.87;6.17;;;14.90;99.90;;;;;;4980132;28;20191;-78
2023/06/25 02:32:45;;;;;;;6.43;5.80;;;14.90;99.90;;;;;;4979220;28;20228;-79
2023/06/25 02:35:12;;;;;;;7.27;6.10;;;15.00;99.90;;;;;;4980538;28;20269;-78
2023/06/25 02:37:39;;;;;;;10.47;9.47;;;14.90;99.90;;;;;;4980716;28;20198;-78
2023/06/25 02:40:07;;;;;;;9.90;9.00;;;14.90;99.90;;;;;;4977610;28;20223;-78
2023/06/25 02:42:34;;;;;;;10.67;9.67;;;14.80;99.90;;;;;;4978308;28;20221;-79
2023/06/25 02:45:00;;;;;;;10.70;9.60;;;14.80;99.90;;;;;;4978328;28;20291;-78
2023/06/25 02:47:28;;;;;;;10.47;9.40;;;14.80;99.90;;;;;;4977183;28;20247;-77
2023/06/25 02:49:56;;;;;;;9.90;9.00;;;14.70;99.90;;;;;;4967428;28;20196;-80
2023/06/25 02:52:24;;;;;;;7.73;5.97;;;14.70;99.90;;;;;;4974203;28;20239;-77
2023/06/25 02:54:50;;;;;;;6.83;5.90;;;14.60;99.90;;;;;;4975074;28;20686;-78
2023/06/25 02:57:17;;;;;;;7.80;6.17;;;14.60;99.90;;;;;;5005094;28;20262;-77
2023/06/25 02:59:44;;;;;;;7.47;6.33;;;14.50;99.90;;;;;;4999354;28;20219;-77
2023/06/25 03:02:11;;;;;;;7.10;6.40;;;14.50;99.90;;;;;;4975329;28;20227;-78
2023/06/25 03:04:38;;;;;;;6.73;5.80;;;14.50;99.90;;;;;;4971706;28;20193;-78
2023/06/25 03:07:07;;;;;;;9.53;8.63;;;14.40;99.90;;;;;;4991267;28;20190;-78
2023/06/25 03:09:34;;;;;;;8.30;7.50;;;14.40;99.90;;;;;;4974295;28;20228;-78
2023/06/25 03:12:02;;;;;;;7.33;6.63;;;14.40;99.90;;;;;;4974903;28;20784;-78
2023/06/25 03:14:29;;;;;;;7.90;6.57;;;14.40;99.90;;;;;;4976210;28;20277;-77
2023/06/25 03:16:56;;;;;;;7.87;6.43;;;14.40;99.90;;;;;;4976537;28;20221;-78
2023/06/25 03:19:23;;;;;;;6.97;5.80;;;14.30;99.90;;;;;;4966507;28;20203;-77
2023/06/25 03:21:50;;;;;;;7.27;6.47;;;14.30;99.90;;;;;;4991393;28;20247;-79
2023/06/25 03:24:18;;;;;;;7.37;6.57;;;14.30;99.90;;;;;;4974923;28;20201;-79
2023/06/25 03:26:45;;;;;;;7.03;6.33;;;14.30;99.90;;;;;;4993650;28;20207;-79
2023/06/25 03:29:13;;;;;;;7.77;6.53;;;14.20;99.90;;;;;;4973735;28;20201;-79
2023/06/25 03:31:40;;;;;;;7.97;6.83;;;14.20;99.90;;;;;;5000323;28;20223;-78
2023/06/25 03:34:08;;;;;;;7.10;6.40;;;14.20;99.90;;;;;;4986482;28;20622;-79
2023/06/25 03:36:34;;;;;;;8.33;6.60;;;14.20;99.90;;;;;;4972702;28;20213;-79
2023/06/25 03:39:02;;;;;;;7.80;6.90;;;14.20;99.90;;;;;;4977959;28;20288;-79
2023/06/25 03:41:30;;;;;;;7.60;6.80;;;14.20;99.90;;;;;;4974510;28;20316;-82
2023/06/25 03:43:58;;;;;;;7.23;6.50;;;14.20;99.90;;;;;;4984412;28;20284;-79
2023/06/25 03:46:25;;;;;;;7.33;6.57;;;14.20;99.90;;;;;;4975641;28;20228;-80
2023/06/25 03:48:52;;;;;;;8.77;6.70;;;14.20;99.90;;;;;;4976696;28;20206;-81
2023/06/25 03:51:20;;;;;;;7.43;6.63;;;14.20;99.90;;;;;;4976563;28;20239;-80
2023/06/25 03:53:48;;;;;;;7.13;6.40;;;14.30;99.90;;;;;;4976357;28;20204;-80
2023/06/25 03:56:15;;;;;;;7.40;6.33;;;14.30;99.90;;;;;;4976058;28;20618;-80
2023/06/25 03:58:43;;;;;;;8.33;6.60;;;14.30;99.90;;;;;;4983582;28;20761;-80
2023/06/25 04:01:10;;;;;;;7.50;6.53;;;14.30;99.90;;;;;;4976356;28;20340;-80
2023/06/25 04:03:38;;;;;;;7.33;6.60;;;14.30;99.90;;;;;;4979443;28;20201;-80
2023/06/25 04:06:05;;;;;;;7.63;6.53;;;14.40;99.90;;;;;;4981156;28;20204;-80
2023/06/25 04:08:31;;;;;;;8.53;7.03;;;14.40;99.90;;;;;;4981954;28;20621;-81
2023/06/25 04:10:58;;;;;;;8.80;6.70;;;14.40;99.90;;;;;;4980295;28;20660;-80
2023/06/25 04:13:26;;;;;;;7.93;6.63;;;14.40;99.90;;;;;;4978094;28;20591;-79
2023/06/25 04:15:54;;;;;;;6.80;6.00;;;14.50;99.90;;;;;;4983091;28;20255;-78
2023/06/25 04:18:21;;;;;;;7.17;6.33;;;14.50;99.90;;;;;;4986110;28;20207;-81
2023/06/25 04:20:48;;;;;;;7.93;7.07;;;14.60;99.90;;;;;;4994994;28;20235;-78
2023/06/25 04:23:15;;;;;;;10.30;9.40;;;14.60;99.90;;;;;;4979841;28;20207;-81
2023/06/25 04:25:43;;;;;;;10.50;9.60;;;14.70;99.90;;;;;;4978317;28;20737;-82
2023/06/25 04:28:15;;;;;;;12.17;9.93;;;14.80;99.90;;;;;;5006627;28;20286;-81
2023/06/25 04:30:42;;;;;;;10.50;9.60;;;14.90;99.90;;;;;;4977671;28;20205;-82
2023/06/25 04:33:11;;;;;;;9.70;8.90;;;15.00;99.90;;;;;;4978337;28;20225;-81
2023/06/25 04:35:39;;;;;;;10.37;9.43;;;15.20;99.90;;;;;;4997098;28;20195;-81
2023/06/25 04:38:06;;;;;;;11.00;10.00;;;15.30;99.90;;;;;;4998581;28;20197;-80
2023/06/25 04:40:33;;;;;;;10.57;9.40;;;15.50;99.90;;;;;;4978450;28;20710;-83
2023/06/25 04:43:00;;;;;;;9.47;8.57;;;15.60;99.90;;;;;;4995475;28;20244;-81
2023/06/25 04:45:27;;;;;;;9.20;8.30;;;15.80;99.90;;;;;;4991707;28;20201;-80
2023/06/25 04:47:54;;;;;;;7.53;6.30;;;16.00;99.90;;;;;;4999840;28;20690;-79
2023/06/25 04:50:22;;;;;;;7.60;5.93;;;16.30;99.90;;;;;;4978184;28;20719;-78
2023/06/25 04:52:49;;;;;;;6.93;5.83;;;16.40;99.90;;;;;;4983501;28;20290;-79
2023/06/25 04:55:16;;;;;;;9.90;8.43;;;16.70;99.90;;;;;;4993792;28;20206;-79
2023/06/25 04:57:43;;;;;;;8.87;8.07;;;17.10;99.90;;;;;;4978421;28;20696;-78
2023/06/25 05:00:11;;;;;;;8.10;6.17;;;17.40;99.90;;;;;;4977625;28;20198;-80
2023/06/25 05:02:38;;;;;;;7.13;5.97;;;17.50;99.90;;;;;;4993279;28;20231;-78
2023/06/25 05:05:05;;;;;;;5.80;5.20;;;17.60;99.90;;;;;;4990154;28;20230;-78
2023/06/25 05:07:33;;;;;;;8.10;7.40;;;17.60;99.90;;;;;;4998079;28;20229;-85
2023/06/25 05:10:00;;;;;;;8.27;7.47;;;17.70;99.90;;;;;;4993880;28;20207;-79
2023/06/25 05:12:27;;;;;;;7.83;7.13;;;18.00;99.90;;;;;;5005795;28;20223;-83
2023/06/25 05:14:54;;;;;;;8.20;7.50;;;18.00;99.90;;;;;;4975696;28;20236;-78
2023/06/25 05:17:21;;;;;;;9.80;8.90;;;18.20;99.90;;;;;;4975385;28;20260;-80
2023/06/25 05:19:47;;;;;;;6.90;5.87;;;18.50;99.90;;;;;;4994470;28;20689;-82
2023/06/25 05:22:14;;;;;;;8.47;7.67;;;18.70;99.90;;;;;;4978271;28;20225;-76
2023/06/25 05:24:42;;;;;;;8.97;7.17;;;19.00;99.90;;;;;;4974094;28;20299;-77
2023/06/25 05:27:09;;;;;;;9.03;8.23;;;19.00;99.90;;;;;;4988768;28;20261;-75
2023/06/25 05:29:36;;;;;;;9.17;8.27;;;18.90;99.90;;;;;;4972125;28;20256;-76
2023/06/25 05:32:04;;;;;;;7.57;6.87;;;19.00;99.90;;;;;;4973302;28;20234;-76
2023/06/25 05:34:31;;;;;;;7.77;6.70;;;19.00;99.90;;;;;;4973600;28;20264;-76
2023/06/25 05:36:58;;;;;;;7.90;7.13;;;19.00;99.90;;;;;;4990129;28;20260;-76
2023/06/25 05:39:28;;;;;;;7.20;5.47;;;19.20;99.90;;;;;;4975348;28;20206;-77
2023/06/25 05:41:57;;;;;;;7.00;5.90;;;19.50;99.90;;;;;;4975319;28;20608;-76
2023/06/25 05:44:23;;;;;;;7.67;6.87;;;19.90;99.90;;;;;;4975670;28;20198;-77
2023/06/25 05:46:50;;;;;;;7.43;6.73;;;20.60;99.90;;;;;;4975881;28;20252;-77
2023/06/25 05:49:17;;;;;;;8.17;7.47;;;21.30;99.90;;;;;;4990639;28;20244;-77
2023/06/25 05:51:44;;;;;;;9.53;8.73;;;22.00;99.90;;;;;;4976450;28;20637;-77
2023/06/25 05:54:11;;;;;;;7.87;7.17;;;22.60;99.90;;;;;;4979882;28;20874;-75
2023/06/25 05:56:38;;;;;;;8.00;7.20;;;23.00;99.90;;;;;;5002979;28;20209;-75
2023/06/25 05:59:06;;;;;;;8.17;7.47;;;23.40;99.90;;;;;;4998380;28;20198;-74
2023/06/25 06:01:32;;;;;;;7.83;7.03;;;23.90;99.90;;;;;;4974082;28;20269;-74
2023/06/25 06:03:59;;;;;;;8.00;7.20;;;24.20;99.90;;;;;;4986098;28;20202;-75
2023/06/25 06:06:26;;;;;;;7.70;7.03;;;24.40;99.90;;;;;;4971197;28;20260;-74
2023/06/25 06:08:53;;;;;;;6.93;6.30;;;24.70;99.90;;;;;;4974225;28;20198;-75
2023/06/25 06:11:19;;;;;;;7.80;7.00;;;24.80;99.90;;;;;;4974034;28;20210;-75
2023/06/25 06:13:46;;;;;;;7.50;6.80;;;25.10;99.90;;;;;;4974153;28;20202;-75
2023/06/25 06:16:14;;;;;;;8.27;7.47;;;25.30;99.90;;;;;;4969355;28;20194;-75
2023/06/25 06:18:42;;;;;;;7.50;6.90;;;25.50;99.90;;;;;;4973631;28;20257;-75
2023/06/25 06:21:08;;;;;;;7.80;7.10;;;25.80;99.90;;;;;;4973703;28;20218;-75
2023/06/25 06:23:35;;;;;;;6.93;6.23;;;26.00;99.90;;;;;;4972770;28;20281;-75
2023/06/25 06:26:02;;;;;;;8.80;8.10;;;26.20;99.90;;;;;;4973904;28;20280;-75
2023/06/25 06:28:29;;;;;;;8.50;7.80;;;26.30;99.90;;;;;;4973641;28;20581;-75
2023/06/25 06:30:55;;;;;;;8.40;7.60;;;26.40;99.90;;;;;;4972787;28;20282;-75
2023/06/25 06:33:23;;;;;;;7.63;6.93;;;26.50;99.90;;;;;;4973807;28;20245;-75
2023/06/25 06:35:50;;;;;;;8.37;7.67;;;26.90;99.90;;;;;;4993753;28;20634;-75
2023/06/25 06:38:17;;;;;;;8.83;7.93;;;27.00;99.90;;;;;;4973770;28;20198;-75
2023/06/25 06:40:44;;;;;;;8.60;7.80;;;27.20;99.90;;;;;;4973446;28;20269;-75
2023/06/25 06:43:11;;;;;;;8.37;7.53;;;27.10;99.90;;;;;;4973887;28;20728;-75
2023/06/25 06:45:37;;;;;;;8.13;7.43;;;27.20;99.90;;;;;;4972589;28;20558;-74
2023/06/25 06:48:05;;;;;;;8.50;7.60;;;27.20;99.90;;;;;;4973306;28;20676;-75
2023/06/25 06:50:34;;;;;;;8.33;7.40;;;27.00;99.90;;;;;;4972850;28;20202;-75
2023/06/25 06:53:00;;;;;;;8.20;7.40;;;27.20;99.90;;;;;;4972450;28;20679;-75
2023/06/25 06:55:27;;;;;;;7.83;7.13;;;27.50;99.90;;;;;;4973056;28;20623;-75
2023/06/25 06:57:54;;;;;;;8.27;7.57;;;27.40;99.90;;;;;;4973309;28;20204;-75
2023/06/25 07:00:21;;;;;;;8.80;8.10;;;27.20;99.90;;;;;;4973142;28;20223;-76
2023/06/25 07:02:48;;;;;;;7.87;7.17;;;27.00;99.90;;;;;;4973261;28;20420;-75
2023/06/25 07:05:14;;;;;;;7.73;6.93;;;27.10;99.90;;;;;;4971913;28;20186;-75
2023/06/25 07:07:42;;;;;;;8.13;7.50;;;27.20;99.90;;;;;;4971803;28;20209;-75
2023/06/25 07:10:10;;;;;;;8.60;7.80;;;27.60;99.90;;;;;;4971761;28;20202;-75
2023/06/25 07:12:37;;;;;;;7.13;6.53;;;27.80;99.90;;;;;;4971742;28;20273;-76
2023/06/25 07:15:04;;;;;;;8.67;7.93;;;28.10;99.90;;;;;;4971996;28;20217;-75
2023/06/25 07:17:31;;;;;;;8.37;7.67;;;28.30;99.90;;;;;;4971372;28;20205;-75
2023/06/25 07:19:58;;;;;;;7.50;6.90;;;28.50;99.90;;;;;;4973045;28;20198;-75
2023/06/25 07:22:25;;;;;;;7.50;6.70;;;28.80;99.90;;;;;;4972960;28;20260;-75
2023/06/25 07:24:53;;;;;;;7.90;7.10;;;28.90;99.90;;;;;;4972827;28;20190;-75
2023/06/25 07:27:20;;;;;;;8.03;7.33;;;29.10;99.90;;;;;;4973102;28;20244;-76
2023/06/25 07:29:46;;;;;;;7.37;6.77;;;29.10;99.90;;;;;;4971210;28;20217;-75
2023/06/25 07:32:13;;;;;;;8.50;7.77;;;29.30;99.90;;;;;;4972809;28;20268;-75
2023/06/25 07:34:40;;;;;;;8.63;7.77;;;29.40;99.90;;;;;;4972857;28;20264;-76
2023/06/25 07:37:07;;;;;;;8.30;7.47;;;29.30;99.90;;;;;;4972742;28;20240;-75
2023/06/25 07:39:34;;;;;;;7.30;6.60;;;29.40;99.90;;;;;;4972504;28;20198;-75
2023/06/25 07:42:02;;;;;;;7.23;6.37;;;29.70;99.90;;;;;;4972447;28;20297;-75
2023/06/25 07:44:29;;;;;;;7.77;7.07;;;29.50;99.90;;;;;;4972461;28;20209;-74
2023/06/25 07:46:56;;;;;;;8.17;7.30;;;29.40;99.90;;;;;;4972649;28;20664;-75
2023/06/25 07:49:23;;;;;;;7.80;7.10;;;29.50;99.90;;;;;;4972521;28;20594;-75
2023/06/25 07:51:51;;;;;;;7.17;6.57;;;29.30;99.90;;;;;;4972231;28;20226;-74
2023/06/25 07:54:21;;;;;;;6.90;6.20;;;29.50;99.90;;;;;;4971442;28;20876;-75
2023/06/25 07:56:47;;;;;;;7.07;6.30;;;29.30;99.90;;;;;;4972584;28;20212;-76
2023/06/25 07:59:16;;;;;;;7.37;6.67;;;29.40;99.90;;;;;;4972923;28;20233;-75
2023/06/25 08:01:44;;;;;;;6.13;5.53;;;29.30;99.90;;;;;;4972627;28;20289;-75
2023/06/25 08:04:11;;;;;;;6.73;6.10;;;29.40;99.90;;;;;;4972371;28;20234;-77
2023/06/25 08:06:37;;;;;;;6.60;6.00;;;29.90;99.90;;;;;;4975140;28;20365;-78
2023/06/25 08:09:04;;;;;;;7.00;6.30;;;30.00;99.90;;;;;;4989572;28;20194;-77
2023/06/25 08:11:31;;;;;;;7.70;6.67;;;30.00;99.50;;;;;;4973883;28;20273;-78
2023/06/25 08:13:58;;;;;;;7.57;6.87;;;29.70;99.90;;;;;;4974760;28;20434;-78
2023/06/25 08:16:29;;;;;;;6.80;6.20;;;29.90;99.90;;;;;;4973902;28;20578;-74
2023/06/25 08:18:56;;;;;;;7.37;6.77;;;29.70;99.90;;;;;;4966426;28;20217;-77
2023/06/25 08:21:24;;;;;;;7.40;6.80;;;29.10;99.90;;;;;;4974390;28;20308;-77
2023/06/25 08:23:50;;;;;;;7.60;7.00;;;29.10;99.90;;;;;;4973039;28;20450;-77
2023/06/25 08:26:17;;;;;;;7.80;7.13;;;29.50;99.90;;;;;;4972959;28;20228;-77
2023/06/25 08:28:44;;;;;;;7.67;6.97;;;30.10;99.90;;;;;;4973559;28;20202;-77
2023/06/25 08:31:11;;;;;;;7.23;6.63;;;30.30;98.90;;;;;;4973778;28;20701;-78
2023/06/25 08:33:39;;;;;;;6.77;6.27;;;30.40;99.90;;;;;;4974955;28;20206;-78
2023/06/25 08:36:07;;;;;;;6.77;6.17;;;30.60;99.20;;;;;;4975369;28;20244;-76
2023/06/25 08:38:34;;;;;;;8.80;7.90;;;30.30;97.40;;;;;;5003159;28;20218;-78
2023/06/25 08:41:01;;;;;;;7.43;6.93;;;30.60;98.00;;;;;;4973940;28;20269;-78
2023/06/25 08:43:28;;;;;;;8.37;7.67;;;30.90;97.40;;;;;;4974635;28;20265;-79
2023/06/25 08:45:55;;;;;;;8.40;7.60;;;31.10;97.70;;;;;;4974122;28;20265;-77
2023/06/25 08:48:23;;;;;;;7.97;7.33;;;31.40;98.00;;;;;;4973446;28;20190;-78
2023/06/25 08:50:55;;;;;;;8.27;7.57;;;31.30;96.10;;;;;;5001000;28;20443;-76
2023/06/25 08:53:24;;;;;;;7.70;7.10;;;31.30;95.80;;;;;;4976333;28;20573;-78
2023/06/25 08:55:55;;;;;;;7.40;6.80;;;31.20;92.40;;;;;;4976711;28;20689;-76
2023/06/25 08:58:22;;;;;;;7.27;6.67;;;31.10;93.50;;;;;;4977613;28;20204;-78
2023/06/25 09:00:49;;;;;;;7.67;6.97;;;31.20;92.80;;;;;;4977208;28;20553;-78
2023/06/25 09:03:16;;;;;;;8.20;7.50;;;31.30;93.00;;;;;;4977434;28;20217;-78
2023/06/25 09:05:53;;;;;;;7.40;6.80;;;30.90;94.70;;;;;;4977099;28;20309;-78
2023/06/25 09:08:21;;;;;;;8.20;7.60;;;31.00;94.60;;;;;;4977459;28;20224;-81
2023/06/25 09:10:51;;;;;;;6.57;5.97;;;31.20;95.60;;;;;;4987317;28;20206;-79
2023/06/25 09:13:22;;;;;;;7.30;6.70;;;31.60;92.50;;;;;;4990973;28;20194;-78
2023/06/25 09:15:50;;;;;;;7.43;6.82;;;32.00;92.20;;;;;;5004645;28;20202;-79
2023/06/25 09:18:21;;;;;;;7.88;7.18;;;32.30;93.30;;;;;;4975482;28;20261;-78
2023/06/25 09:20:49;;;;;;;7.82;5.97;;;32.10;90.00;;;;;;4981486;28;20228;-79
2023/06/25 09:23:22;;;;;;;6.97;6.38;;;31.70;86.50;;;;;;4977849;28;20237;-79
2023/06/25 09:25:50;;;;;;;7.07;6.45;;;31.40;89.70;;;;;;4993558;28;20669;-79
2023/06/25 09:28:17;;;;;;;6.90;6.25;;;31.40;88.90;;;;;;4977248;28;20202;-79
2023/06/25 09:30:44;;;;;;;6.85;6.25;;;31.40;84.90;;;;;;4971281;28;20747;-77
2023/06/25 09:33:12;;;;;;;6.82;6.22;;;31.10;87.80;;;;;;4979733;28;20326;-77
2023/06/25 09:35:39;;;;;;;8.10;7.30;;;30.80;89.20;;;;;;4979560;28;20210;-78
2023/06/25 09:38:08;;;;;;;7.68;7.07;;;31.20;91.50;;;;;;4981789;28;20202;-78
2023/06/25 09:40:36;;;;;;;7.73;7.13;;;31.30;87.80;;;;;;4994162;28;20677;-79
2023/06/25 09:43:06;;;;;;;7.50;6.80;;;31.50;86.60;;;;;;4969589;28;20222;-79
2023/06/25 09:45:35;;;;;;;7.10;6.50;;;31.30;86.50;;;;;;4977219;28;20213;-77
2023/06/25 09:48:09;;;;;;;6.60;5.90;;;31.50;86.80;;;;;;4977140;28;20203;-78
2023/06/25 09:50:39;;;;;;;6.43;5.83;;;31.40;83.60;;;;;;5003518;28;20229;-78
2023/06/25 09:53:12;;;;;;;7.07;6.47;;;30.60;82.80;;;;;;4977225;28;20300;-77
2023/06/25 09:55:41;;;;;;;8.00;7.30;;;30.30;84.10;;;;;;4979144;28;20252;-81
2023/06/25 09:58:09;;;;;;;7.47;6.88;;;30.20;88.10;;;;;;4980090;28;20457;-79
2023/06/25 10:00:39;;;;;;;8.80;7.77;;;30.20;86.40;;;;;;4977683;28;20260;-80
2023/06/25 10:03:06;;;;;;;7.00;5.05;;;30.10;84.00;;;;;;5003217;28;20891;-80
2023/06/25 10:05:33;;;;;;;11.57;4.93;;;30.10;86.40;;;;;;4976750;28;20205;-79
2023/06/25 10:08:01;;;;;;;6.23;5.63;;;30.30;84.20;;;;;;5006589;28;20202;-80
2023/06/25 10:10:29;;;;;;;5.00;4.50;;;30.60;87.40;;;;;;4976052;28;20496;-80
2023/06/25 10:12:57;;;;;;;6.83;6.23;;;31.30;88.40;;;;;;4977741;28;20297;-80
2023/06/25 10:15:31;;;;;;;6.77;6.17;;;31.70;86.20;;;;;;4980428;28;20194;-78
2023/06/25 10:17:59;;;;;;;7.97;7.27;;;31.50;87.60;;;;;;4975478;28;21846;-79
2023/06/25 10:20:28;;;;;;;6.20;5.67;;;31.30;83.60;;;;;;4977010;28;20202;-79
2023/06/25 10:23:09;;;;;;;6.70;6.10;;;31.00;83.00;;;;;;4975513;28;20222;-80
2023/06/25 10:25:38;;;;;;;5.73;5.07;;;30.70;82.20;;;;;;4976572;28;20213;-78
2023/06/25 10:28:09;;;;;;;7.20;6.50;;;30.30;84.50;;;;;;4975754;28;20292;-79
2023/06/25 10:30:38;;;;;;;6.27;5.17;;;30.30;85.10;;;;;;4979373;28;20257;-79
2023/06/25 10:33:05;;;;;;;6.67;6.03;;;30.50;81.80;;;;;;4976692;28;20210;-80
2023/06/25 10:35:39;;;;;;;5.10;4.53;;;30.30;82.30;;;;;;5005638;28;20221;-80
2023/06/25 10:38:06;;;;;;;7.70;7.00;;;30.30;83.60;;;;;;4982653;28;20572;-80
2023/06/25 10:40:37;;;;;;;7.20;6.60;;;30.20;83.60;;;;;;4975230;28;20205;-79
2023/06/25 10:43:04;;;;;;;7.50;6.90;;;30.60;86.20;;;;;;4975400;28;20268;-78
2023/06/25 10:45:33;;;;;;;7.47;6.87;;;30.80;83.60;;;;;;4976877;28;20732;-81
2023/06/25 10:48:05;;;;;;;7.90;7.20;;;30.80;83.50;;;;;;4957509;28;20269;-80
2023/06/25 10:50:33;;;;;;;7.53;6.93;;;30.80;82.20;;;;;;4975921;28;20260;-77
2023/06/25 10:53:00;;;;;;;7.57;6.87;;;30.60;81.40;;;;;;4978899;28;20233;-77
2023/06/25 10:55:27;;;;;;;6.97;6.13;;;30.50;82.80;;;;;;4976406;28;20202;-77
2023/06/25 10:57:55;;;;;;;6.90;6.30;;;30.40;81.10;;;;;;4974449;28;20637;-79
2023/06/25 11:00:23;;;;;;;8.00;7.20;;;30.40;83.70;;;;;;4975550;28;20198;-78
2023/06/25 11:02:52;;;;;;;7.03;6.40;;;30.20;81.70;;;;;;4974690;28;20229;-78
2023/06/25 11:05:20;;;;;;;5.67;4.60;;;30.30;85.10;;;;;;4967865;28;20292;-78
2023/06/25 11:07:53;;;;;;;5.00;4.50;;;30.10;84.00;;;;;;4974859;28;20239;-78
2023/06/25 11:10:22;;;;;;;6.90;5.87;;;30.00;82.60;;;;;;4974010;28;20681;-77
2023/06/25 11:12:48;;;;;;;7.80;6.97;;;29.90;85.10;;;;;;4974059;28;20245;-78
2023/06/25 11:15:16;;;;;;;7.40;6.70;;;29.90;83.90;;;;;;4977044;28;20691;-80
2023/06/25 11:17:43;;;;;;;5.60;5.00;;;29.60;82.60;;;;;;4976464;28;20280;-79
2023/06/25 11:20:11;;;;;;;4.90;4.43;;;29.70;82.20;;;;;;4976574;28;20225;-76
2023/06/25 11:22:43;;;;;;;8.30;7.50;;;29.60;83.20;;;;;;4975752;28;20280;-78
2023/06/25 11:25:10;;;;;;;6.37;5.17;;;29.40;84.20;;;;;;4989670;28;20202;-77
2023/06/25 11:27:37;;;;;;;7.47;6.87;;;29.30;87.40;;;;;;4994067;28;20205;-77
2023/06/25 11:30:05;;;;;;;5.80;5.10;;;29.20;87.40;;;;;;4975010;28;20230;-77
2023/06/25 11:32:32;;;;;;;5.33;4.73;;;29.10;84.90;;;;;;4977108;28;21913;-78
2023/06/25 11:34:59;;;;;;;7.97;7.27;;;29.10;82.70;;;;;;4972962;28;20225;-78
2023/06/25 11:37:27;;;;;;;5.90;5.30;;;29.00;83.90;;;;;;4973309;28;20805;-78
2023/06/25 11:39:54;;;;;;;7.60;6.90;;;29.10;86.00;;;;;;4974013;28;20199;-78
2023/06/25 11:42:23;;;;;;;7.03;6.43;;;29.10;84.30;;;;;;4998312;28;20214;-78
2023/06/25 11:44:59;;;;;;;5.93;5.38;;;29.00;82.20;;;;;;4973726;28;20929;-77
2023/06/25 11:47:26;;;;;;;5.07;4.40;;;28.90;83.40;;;;;;4975298;28;20677;-81
2023/06/25 11:49:53;;;;;;;6.23;5.13;;;29.00;84.50;;;;;;4976515;28;20237;-80
2023/06/25 11:52:22;;;;;;;5.33;4.70;;;29.10;84.10;;;;;;4976593;28;20707;-80
2023/06/25 11:54:52;;;;;;;5.35;4.68;;;29.30;83.80;;;;;;4975832;28;20925;-80
2023/06/25 11:57:19;;;;;;;5.68;5.05;;;29.30;83.80;;;;;;4974946;28;20434;-80
2023/06/25 11:59:46;;;;;;;5.93;4.80;;;29.30;84.20;;;;;;4989975;28;20756;-81
2023/06/25 12:02:13;;;;;;;5.17;4.67;;;29.20;83.70;;;;;;4975935;28;20766;-81
2023/06/25 12:04:40;;;;;;;6.80;4.80;;;29.20;83.50;;;;;;4976316;28;20264;-80
2023/06/25 12:07:07;;;;;;;5.60;4.97;;;29.10;85.20;;;;;;4976424;28;20202;-80
2023/06/25 12:09:34;;;;;;;5.70;4.93;;;29.10;85.30;;;;;;4993975;28;20215;-82
2023/06/25 12:12:02;;;;;;;5.43;4.87;;;29.10;85.10;;;;;;4974864;28;20612;-80
2023/06/25 12:14:29;;;;;;;5.33;4.63;;;29.20;83.10;;;;;;4975424;28;20302;-80
2023/06/25 12:16:55;;;;;;;6.53;5.53;;;29.10;83.40;;;;;;4976099;28;20272;-80
2023/06/25 12:19:22;;;;;;;6.07;5.47;;;29.00;82.20;;;;;;4976192;28;20197;-80
2023/06/25 12:21:49;;;;;;;7.80;7.00;;;29.00;82.90;;;;;;4975778;28;20272;-79
2023/06/25 12:24:16;;;;;;;6.30;5.30;;;29.00;82.90;;;;;;4975686;28;20276;-78
2023/06/25 12:26:43;;;;;;;5.87;5.10;;;29.10;82.50;;;;;;4976334;28;20209;-79
2023/06/25 12:29:11;;;;;;;7.03;5.80;;;29.20;82.50;;;;;;4978874;28;20193;-78
2023/06/25 12:31:38;;;;;;;5.90;5.00;;;29.10;81.20;;;;;;4993354;28;20787;-77
2023/06/25 12:34:05;;;;;;;7.30;6.57;;;29.10;80.40;;;;;;4992440;28;20278;-77
2023/06/25 12:36:31;;;;;;;5.77;5.07;;;28.90;80.00;;;;;;4978811;28;20198;-78
2023/06/25 12:39:00;;;;;;;6.93;6.23;;;28.80;81.50;;;;;;4990664;28;20633;-76
2023/06/25 12:41:27;;;;;;;6.00;5.33;;;28.70;80.30;;;;;;4978582;28;20230;-78
2023/06/25 12:43:54;;;;;;;7.00;5.00;;;28.70;81.50;;;;;;4977397;28;20220;-78
2023/06/25 12:46:22;;;;;;;5.53;4.93;;;28.80;81.50;;;;;;4978669;28;20198;-78
2023/06/25 12:48:48;;;;;;;8.13;7.33;;;28.70;79.30;;;;;;4996227;28;20265;-76